sensor_id;sensor_type;location;lat;lon;timestamp;P1;durP1;ratioP1;P2;durP2;ratioP2
75649;SDS011;64245;51.282;22.494;2024-03-08T08:14:11;12.32;;;6.78;;
75649;SDS011;64245;51.282;22.494;2024-03-08T08:16:37;12.32;;;4.68;;
75649;SDS011;64245;51.282;22.494;2024-03-08T08:19:03;9.77;;;5.57;;
75649;SDS011;64245;51.282;22.494;2024-03-08T08:21:36;4.95;;;4.50;;
75649;SDS011;64245;51.282;22.494;2024-03-08T08:24:03;12.25;;;6.30;;
75649;SDS011;64245;51.282;22.494;2024-03-08T08:26:29;11.07;;;5.07;;
75649;SDS011;64245;51.282;22.494;2024-03-08T08:28:55;10.00;;;5.07;;
75649;SDS011;64245;51.282;22.494;2024-03-08T08:31:21;10.45;;;5.07;;
75649;SDS011;64245;51.282;22.494;2024-03-08T08:33:47;9.38;;;4.35;;
75649;SDS011;64245;51.282;22.494;2024-03-08T08:36:17;8.35;;;5.38;;
75649;SDS011;64245;51.282;22.494;2024-03-08T08:38:43;7.15;;;4.45;;
75649;SDS011;64245;51.282;22.494;2024-03-08T08:41:09;9.95;;;4.47;;
75649;SDS011;64245;51.282;22.494;2024-03-08T08:43:36;13.57;;;5.18;;
75649;SDS011;64245;51.282;22.494;2024-03-08T08:46:02;8.90;;;4.25;;
75649;SDS011;64245;51.282;22.494;2024-03-08T08:48:28;11.38;;;6.93;;
75649;SDS011;64245;51.282;22.494;2024-03-08T08:50:56;9.45;;;4.75;;
75649;SDS011;64245;51.282;22.494;2024-03-08T08:53:21;7.95;;;4.05;;
75649;SDS011;64245;51.282;22.494;2024-03-08T08:55:47;8.98;;;4.60;;
75649;SDS011;64245;51.282;22.494;2024-03-08T08:58:13;8.68;;;4.50;;
75649;SDS011;64245;51.282;22.494;2024-03-08T09:00:39;9.07;;;3.53;;
75649;SDS011;64245;51.282;22.494;2024-03-08T09:03:05;7.55;;;4.13;;
75649;SDS011;64245;51.282;22.494;2024-03-08T09:05:33;4.75;;;2.63;;
75649;SDS011;64245;51.282;22.494;2024-03-08T09:07:59;10.93;;;4.22;;
75649;SDS011;64245;51.282;22.494;2024-03-08T09:10:25;13.80;;;4.15;;
75649;SDS011;64245;51.282;22.494;2024-03-08T09:12:51;6.30;;;3.40;;
75649;SDS011;64245;51.282;22.494;2024-03-08T09:15:16;3.70;;;1.67;;
75649;SDS011;64245;51.282;22.494;2024-03-08T09:17:43;6.38;;;2.83;;
75649;SDS011;64245;51.282;22.494;2024-03-08T09:20:10;8.52;;;4.95;;
75649;SDS011;64245;51.282;22.494;2024-03-08T09:22:39;9.38;;;5.68;;
75649;SDS011;64245;51.282;22.494;2024-03-08T09:25:06;7.35;;;3.78;;
75649;SDS011;64245;51.282;22.494;2024-03-08T09:27:32;1.60;;;1.45;;
75649;SDS011;64245;51.282;22.494;2024-03-08T09:29:59;3.88;;;1.70;;
75649;SDS011;64245;51.282;22.494;2024-03-08T09:32:26;4.00;;;1.75;;
75649;SDS011;64245;51.282;22.494;2024-03-08T09:34:52;8.07;;;4.32;;
75649;SDS011;64245;51.282;22.494;2024-03-08T09:37:17;8.40;;;3.20;;
75649;SDS011;64245;51.282;22.494;2024-03-08T09:39:44;5.50;;;2.53;;
75649;SDS011;64245;51.282;22.494;2024-03-08T09:42:15;10.77;;;3.13;;
75649;SDS011;64245;51.282;22.494;2024-03-08T09:44:45;9.65;;;3.78;;
75649;SDS011;64245;51.282;22.494;2024-03-08T09:47:12;6.28;;;3.38;;
75649;SDS011;64245;51.282;22.494;2024-03-08T09:49:39;6.75;;;4.13;;
75649;SDS011;64245;51.282;22.494;2024-03-08T09:52:06;5.13;;;3.75;;
75649;SDS011;64245;51.282;22.494;2024-03-08T09:54:33;3.33;;;1.88;;
75649;SDS011;64245;51.282;22.494;2024-03-08T09:56:59;7.72;;;2.95;;
75649;SDS011;64245;51.282;22.494;2024-03-08T09:59:25;8.48;;;3.53;;
75649;SDS011;64245;51.282;22.494;2024-03-08T10:01:53;12.38;;;4.28;;
75649;SDS011;64245;51.282;22.494;2024-03-08T10:04:24;9.07;;;3.47;;
75649;SDS011;64245;51.282;22.494;2024-03-08T10:06:51;7.05;;;3.47;;
75649;SDS011;64245;51.282;22.494;2024-03-08T10:09:20;9.68;;;3.58;;
75649;SDS011;64245;51.282;22.494;2024-03-08T10:11:46;5.82;;;3.38;;
75649;SDS011;64245;51.282;22.494;2024-03-08T10:14:12;7.20;;;3.10;;
75649;SDS011;64245;51.282;22.494;2024-03-08T10:16:38;4.32;;;2.47;;
75649;SDS011;64245;51.282;22.494;2024-03-08T10:19:05;6.30;;;2.67;;
75649;SDS011;64245;51.282;22.494;2024-03-08T10:21:31;5.22;;;3.25;;
75649;SDS011;64245;51.282;22.494;2024-03-08T10:23:58;8.50;;;2.85;;
75649;SDS011;64245;51.282;22.494;2024-03-08T10:26:24;5.70;;;2.40;;
75649;SDS011;64245;51.282;22.494;2024-03-08T10:28:51;5.70;;;1.70;;
75649;SDS011;64245;51.282;22.494;2024-03-08T10:31:20;10.35;;;3.50;;
75649;SDS011;64245;51.282;22.494;2024-03-08T10:33:46;6.80;;;3.13;;
75649;SDS011;64245;51.282;22.494;2024-03-08T10:36:13;7.68;;;4.20;;
75649;SDS011;64245;51.282;22.494;2024-03-08T10:38:40;7.82;;;3.75;;
75649;SDS011;64245;51.282;22.494;2024-03-08T10:41:07;6.45;;;4.15;;
75649;SDS011;64245;51.282;22.494;2024-03-08T10:47:30;7.65;;;4.22;;
75649;SDS011;64245;51.282;22.494;2024-03-08T10:49:55;7.90;;;4.07;;
75649;SDS011;64245;51.282;22.494;2024-03-08T10:52:34;7.28;;;3.97;;
75649;SDS011;64245;51.282;22.494;2024-03-08T10:55:02;7.55;;;4.30;;
75649;SDS011;64245;51.282;22.494;2024-03-08T10:57:28;4.70;;;2.40;;
75649;SDS011;64245;51.282;22.494;2024-03-08T10:59:54;8.75;;;3.67;;
75649;SDS011;64245;51.282;22.494;2024-03-08T11:02:20;11.50;;;4.10;;
75649;SDS011;64245;51.282;22.494;2024-03-08T11:04:47;9.00;;;4.78;;
75649;SDS011;64245;51.282;22.494;2024-03-08T11:07:14;7.32;;;3.28;;
75649;SDS011;64245;51.282;22.494;2024-03-08T11:09:47;14.30;;;4.85;;
75649;SDS011;64245;51.282;22.494;2024-03-08T11:12:26;11.27;;;4.95;;
75649;SDS011;64245;51.282;22.494;2024-03-08T11:15:01;14.30;;;5.78;;
75649;SDS011;64245;51.282;22.494;2024-03-08T11:20:11;9.68;;;4.80;;
75649;SDS011;64245;51.282;22.494;2024-03-08T11:22:42;4.40;;;3.17;;
75649;SDS011;64245;51.282;22.494;2024-03-08T11:28:11;8.20;;;4.32;;
75649;SDS011;64245;51.282;22.494;2024-03-08T11:30:43;8.95;;;4.03;;
75649;SDS011;64245;51.282;22.494;2024-03-08T11:33:16;9.35;;;3.95;;
75649;SDS011;64245;51.282;22.494;2024-03-08T11:35:42;10.65;;;4.88;;
75649;SDS011;64245;51.282;22.494;2024-03-08T11:38:11;10.07;;;3.65;;
75649;SDS011;64245;51.282;22.494;2024-03-08T11:40:38;7.32;;;4.13;;
75649;SDS011;64245;51.282;22.494;2024-03-08T11:43:05;9.63;;;4.63;;
75649;SDS011;64245;51.282;22.494;2024-03-08T11:45:35;8.77;;;4.25;;
75649;SDS011;64245;51.282;22.494;2024-03-08T11:48:06;8.82;;;4.68;;
75649;SDS011;64245;51.282;22.494;2024-03-08T11:50:32;12.30;;;5.45;;
75649;SDS011;64245;51.282;22.494;2024-03-08T11:53:02;12.88;;;5.30;;
75649;SDS011;64245;51.282;22.494;2024-03-08T11:55:29;10.35;;;4.88;;
75649;SDS011;64245;51.282;22.494;2024-03-08T11:58:03;8.23;;;4.03;;
75649;SDS011;64245;51.282;22.494;2024-03-08T12:00:30;12.50;;;5.32;;
75649;SDS011;64245;51.282;22.494;2024-03-08T12:03:09;14.35;;;5.07;;
75649;SDS011;64245;51.282;22.494;2024-03-08T12:05:36;10.55;;;5.28;;
75649;SDS011;64245;51.282;22.494;2024-03-08T12:08:06;11.32;;;4.07;;
75649;SDS011;64245;51.282;22.494;2024-03-08T12:10:38;7.75;;;4.15;;
75649;SDS011;64245;51.282;22.494;2024-03-08T12:13:03;9.90;;;4.80;;
75649;SDS011;64245;51.282;22.494;2024-03-08T12:15:31;10.77;;;4.88;;
75649;SDS011;64245;51.282;22.494;2024-03-08T12:17:59;12.32;;;5.78;;
75649;SDS011;64245;51.282;22.494;2024-03-08T12:20:26;13.77;;;5.50;;
75649;SDS011;64245;51.282;22.494;2024-03-08T12:22:56;8.48;;;4.63;;
75649;SDS011;64245;51.282;22.494;2024-03-08T12:25:26;12.48;;;5.32;;
75649;SDS011;64245;51.282;22.494;2024-03-08T12:28:09;9.73;;;5.18;;
75649;SDS011;64245;51.282;22.494;2024-03-08T12:30:56;8.63;;;4.55;;
75649;SDS011;64245;51.282;22.494;2024-03-08T12:33:24;12.13;;;4.63;;
75649;SDS011;64245;51.282;22.494;2024-03-08T12:35:54;9.68;;;4.72;;
75649;SDS011;64245;51.282;22.494;2024-03-08T12:38:21;11.77;;;5.15;;
75649;SDS011;64245;51.282;22.494;2024-03-08T12:40:50;10.50;;;5.15;;
75649;SDS011;64245;51.282;22.494;2024-03-08T12:43:20;10.63;;;5.30;;
75649;SDS011;64245;51.282;22.494;2024-03-08T12:45:46;8.20;;;4.13;;
75649;SDS011;64245;51.282;22.494;2024-03-08T12:48:12;7.72;;;4.65;;
75649;SDS011;64245;51.282;22.494;2024-03-08T12:50:42;11.65;;;4.57;;
75649;SDS011;64245;51.282;22.494;2024-03-08T12:53:13;7.88;;;4.72;;
75649;SDS011;64245;51.282;22.494;2024-03-08T12:55:39;10.38;;;4.47;;
75649;SDS011;64245;51.282;22.494;2024-03-08T12:58:05;8.05;;;4.00;;
75649;SDS011;64245;51.282;22.494;2024-03-08T13:00:33;10.48;;;4.68;;
75649;SDS011;64245;51.282;22.494;2024-03-08T13:03:01;8.02;;;4.88;;
75649;SDS011;64245;51.282;22.494;2024-03-08T13:05:28;9.27;;;4.70;;
75649;SDS011;64245;51.282;22.494;2024-03-08T13:07:55;10.60;;;5.35;;
75649;SDS011;64245;51.282;22.494;2024-03-08T13:10:20;11.45;;;4.40;;
75649;SDS011;64245;51.282;22.494;2024-03-08T13:12:48;9.27;;;4.82;;
75649;SDS011;64245;51.282;22.494;2024-03-08T13:15:14;9.85;;;5.55;;
75649;SDS011;64245;51.282;22.494;2024-03-08T13:17:48;10.43;;;4.22;;
75649;SDS011;64245;51.282;22.494;2024-03-08T13:20:15;7.40;;;4.28;;
75649;SDS011;64245;51.282;22.494;2024-03-08T13:22:45;11.27;;;4.45;;
75649;SDS011;64245;51.282;22.494;2024-03-08T13:25:11;9.82;;;4.40;;
75649;SDS011;64245;51.282;22.494;2024-03-08T13:27:40;8.85;;;4.78;;
75649;SDS011;64245;51.282;22.494;2024-03-08T13:30:08;7.43;;;4.50;;
75649;SDS011;64245;51.282;22.494;2024-03-08T13:32:42;9.93;;;4.70;;
75649;SDS011;64245;51.282;22.494;2024-03-08T13:35:12;8.90;;;4.88;;
75649;SDS011;64245;51.282;22.494;2024-03-08T13:37:39;7.25;;;4.30;;
75649;SDS011;64245;51.282;22.494;2024-03-08T13:40:09;12.32;;;4.70;;
75649;SDS011;64245;51.282;22.494;2024-03-08T13:42:42;8.15;;;4.38;;
75649;SDS011;64245;51.282;22.494;2024-03-08T13:45:08;12.40;;;5.85;;
75649;SDS011;64245;51.282;22.494;2024-03-08T13:47:38;9.82;;;4.45;;
75649;SDS011;64245;51.282;22.494;2024-03-08T13:50:07;8.57;;;3.97;;
75649;SDS011;64245;51.282;22.494;2024-03-08T13:52:37;8.60;;;4.13;;
75649;SDS011;64245;51.282;22.494;2024-03-08T13:55:06;9.40;;;4.35;;
75649;SDS011;64245;51.282;22.494;2024-03-08T13:57:33;7.03;;;3.72;;
75649;SDS011;64245;51.282;22.494;2024-03-08T13:59:59;7.22;;;4.13;;
75649;SDS011;64245;51.282;22.494;2024-03-08T14:02:25;8.95;;;4.47;;
75649;SDS011;64245;51.282;22.494;2024-03-08T14:04:54;9.95;;;4.43;;
75649;SDS011;64245;51.282;22.494;2024-03-08T14:07:20;8.85;;;4.25;;
75649;SDS011;64245;51.282;22.494;2024-03-08T14:09:46;9.07;;;4.13;;
75649;SDS011;64245;51.282;22.494;2024-03-08T14:12:12;11.13;;;3.92;;
75649;SDS011;64245;51.282;22.494;2024-03-08T14:14:40;11.25;;;4.72;;
75649;SDS011;64245;51.282;22.494;2024-03-08T14:17:07;9.52;;;4.00;;
75649;SDS011;64245;51.282;22.494;2024-03-08T14:19:35;7.78;;;3.53;;
75649;SDS011;64245;51.282;22.494;2024-03-08T14:22:00;12.15;;;3.63;;
75649;SDS011;64245;51.282;22.494;2024-03-08T14:24:32;7.75;;;3.00;;
75649;SDS011;64245;51.282;22.494;2024-03-08T14:27:00;7.18;;;2.92;;
75649;SDS011;64245;51.282;22.494;2024-03-08T14:29:28;6.30;;;3.88;;
75649;SDS011;64245;51.282;22.494;2024-03-08T14:31:57;6.70;;;3.47;;
75649;SDS011;64245;51.282;22.494;2024-03-08T14:34:27;8.20;;;3.50;;
75649;SDS011;64245;51.282;22.494;2024-03-08T14:36:54;7.35;;;3.60;;
75649;SDS011;64245;51.282;22.494;2024-03-08T14:39:21;7.10;;;3.28;;
75649;SDS011;64245;51.282;22.494;2024-03-08T14:41:54;6.13;;;3.17;;
75649;SDS011;64245;51.282;22.494;2024-03-08T14:44:21;8.07;;;3.70;;
75649;SDS011;64245;51.282;22.494;2024-03-08T14:46:54;6.18;;;3.05;;
75649;SDS011;64245;51.282;22.494;2024-03-08T14:49:22;10.93;;;4.15;;
75649;SDS011;64245;51.282;22.494;2024-03-08T14:51:48;7.55;;;3.55;;
75649;SDS011;64245;51.282;22.494;2024-03-08T14:54:13;6.00;;;3.15;;
75649;SDS011;64245;51.282;22.494;2024-03-08T14:56:39;9.30;;;3.58;;
75649;SDS011;64245;51.282;22.494;2024-03-08T14:59:08;9.52;;;3.70;;
75649;SDS011;64245;51.282;22.494;2024-03-08T15:01:35;9.07;;;3.83;;
75649;SDS011;64245;51.282;22.494;2024-03-08T15:04:01;7.28;;;3.72;;
75649;SDS011;64245;51.282;22.494;2024-03-08T15:06:34;7.97;;;3.45;;
75649;SDS011;64245;51.282;22.494;2024-03-08T15:09:03;5.60;;;2.67;;
75649;SDS011;64245;51.282;22.494;2024-03-08T15:11:37;4.90;;;3.00;;
75649;SDS011;64245;51.282;22.494;2024-03-08T15:14:05;8.07;;;3.38;;
75649;SDS011;64245;51.282;22.494;2024-03-08T15:16:36;6.38;;;2.72;;
75649;SDS011;64245;51.282;22.494;2024-03-08T15:19:02;5.85;;;2.97;;
75649;SDS011;64245;51.282;22.494;2024-03-08T15:21:30;11.68;;;4.32;;
75649;SDS011;64245;51.282;22.494;2024-03-08T15:23:56;5.38;;;2.88;;
75649;SDS011;64245;51.282;22.494;2024-03-08T15:26:22;8.52;;;3.47;;
75649;SDS011;64245;51.282;22.494;2024-03-08T15:28:48;8.75;;;2.88;;
75649;SDS011;64245;51.282;22.494;2024-03-08T15:31:16;5.20;;;3.15;;
75649;SDS011;64245;51.282;22.494;2024-03-08T15:33:44;7.88;;;2.95;;
75649;SDS011;64245;51.282;22.494;2024-03-08T15:36:14;7.72;;;2.80;;
75649;SDS011;64245;51.282;22.494;2024-03-08T15:38:41;10.55;;;3.72;;
75649;SDS011;64245;51.282;22.494;2024-03-08T15:41:12;11.73;;;3.75;;
75649;SDS011;64245;51.282;22.494;2024-03-08T15:43:39;7.43;;;4.07;;
75649;SDS011;64245;51.282;22.494;2024-03-08T15:46:05;8.00;;;3.22;;
75649;SDS011;64245;51.282;22.494;2024-03-08T15:48:42;8.73;;;3.85;;
75649;SDS011;64245;51.282;22.494;2024-03-08T15:51:08;7.63;;;3.67;;
75649;SDS011;64245;51.282;22.494;2024-03-08T15:53:39;8.20;;;3.60;;
75649;SDS011;64245;51.282;22.494;2024-03-08T15:56:05;8.52;;;3.95;;
75649;SDS011;64245;51.282;22.494;2024-03-08T15:58:37;10.65;;;4.03;;
75649;SDS011;64245;51.282;22.494;2024-03-08T16:01:09;6.10;;;3.35;;
75649;SDS011;64245;51.282;22.494;2024-03-08T16:03:36;6.78;;;3.13;;
75649;SDS011;64245;51.282;22.494;2024-03-08T16:06:27;5.22;;;2.42;;
75649;SDS011;64245;51.282;22.494;2024-03-08T16:08:54;7.88;;;3.38;;
75649;SDS011;64245;51.282;22.494;2024-03-08T16:11:21;6.55;;;3.22;;
75649;SDS011;64245;51.282;22.494;2024-03-08T16:13:48;5.03;;;2.97;;
75649;SDS011;64245;51.282;22.494;2024-03-08T16:16:15;6.45;;;3.25;;
75649;SDS011;64245;51.282;22.494;2024-03-08T16:18:40;9.18;;;3.22;;
75649;SDS011;64245;51.282;22.494;2024-03-08T16:21:06;8.88;;;2.88;;
75649;SDS011;64245;51.282;22.494;2024-03-08T16:23:32;6.28;;;3.33;;
75649;SDS011;64245;51.282;22.494;2024-03-08T16:25:58;8.68;;;2.83;;
75649;SDS011;64245;51.282;22.494;2024-03-08T16:28:24;5.55;;;2.75;;
75649;SDS011;64245;51.282;22.494;2024-03-08T16:31:04;3.90;;;2.60;;
75649;SDS011;64245;51.282;22.494;2024-03-08T16:33:32;6.82;;;3.03;;
75649;SDS011;64245;51.282;22.494;2024-03-08T16:36:00;5.55;;;2.47;;
75649;SDS011;64245;51.282;22.494;2024-03-08T16:38:43;7.25;;;2.80;;
75649;SDS011;64245;51.282;22.494;2024-03-08T16:41:12;3.85;;;2.17;;
75649;SDS011;64245;51.282;22.494;2024-03-08T16:43:38;5.38;;;2.60;;
75649;SDS011;64245;51.282;22.494;2024-03-08T16:46:04;7.15;;;3.30;;
75649;SDS011;64245;51.282;22.494;2024-03-08T16:48:30;9.52;;;2.95;;
75649;SDS011;64245;51.282;22.494;2024-03-08T16:50:59;7.18;;;3.13;;
75649;SDS011;64245;51.282;22.494;2024-03-08T16:53:25;4.88;;;2.65;;
75649;SDS011;64245;51.282;22.494;2024-03-08T16:55:50;3.97;;;1.98;;
75649;SDS011;64245;51.282;22.494;2024-03-08T16:58:19;6.80;;;3.22;;
75649;SDS011;64245;51.282;22.494;2024-03-08T17:00:46;5.32;;;2.45;;
75649;SDS011;64245;51.282;22.494;2024-03-08T17:03:15;9.52;;;3.60;;
75649;SDS011;64245;51.282;22.494;2024-03-08T17:05:42;11.70;;;4.80;;
75649;SDS011;64245;51.282;22.494;2024-03-08T17:08:14;9.55;;;4.30;;
75649;SDS011;64245;51.282;22.494;2024-03-08T17:10:41;7.47;;;3.35;;
75649;SDS011;64245;51.282;22.494;2024-03-08T17:13:10;6.07;;;3.20;;
75649;SDS011;64245;51.282;22.494;2024-03-08T17:15:38;3.53;;;2.67;;
75649;SDS011;64245;51.282;22.494;2024-03-08T17:18:04;6.53;;;3.05;;
75649;SDS011;64245;51.282;22.494;2024-03-08T17:20:34;6.32;;;3.35;;
75649;SDS011;64245;51.282;22.494;2024-03-08T17:23:04;11.07;;;4.22;;
75649;SDS011;64245;51.282;22.494;2024-03-08T17:25:31;7.53;;;3.67;;
75649;SDS011;64245;51.282;22.494;2024-03-08T17:27:57;8.07;;;4.10;;
75649;SDS011;64245;51.282;22.494;2024-03-08T17:30:29;8.13;;;3.30;;
75649;SDS011;64245;51.282;22.494;2024-03-08T17:33:06;12.15;;;5.53;;
75649;SDS011;64245;51.282;22.494;2024-03-08T17:35:38;14.43;;;5.18;;
75649;SDS011;64245;51.282;22.494;2024-03-08T17:38:04;22.48;;;7.78;;
75649;SDS011;64245;51.282;22.494;2024-03-08T17:40:36;25.02;;;7.38;;
75649;SDS011;64245;51.282;22.494;2024-03-08T17:43:09;21.83;;;6.43;;
75649;SDS011;64245;51.282;22.494;2024-03-08T17:45:37;21.67;;;7.70;;
75649;SDS011;64245;51.282;22.494;2024-03-08T17:48:10;13.90;;;7.82;;
75649;SDS011;64245;51.282;22.494;2024-03-08T17:50:41;19.30;;;8.18;;
75649;SDS011;64245;51.282;22.494;2024-03-08T17:53:07;14.45;;;7.22;;
75649;SDS011;64245;51.282;22.494;2024-03-08T17:55:36;20.00;;;8.68;;
75649;SDS011;64245;51.282;22.494;2024-03-08T17:58:03;20.30;;;7.45;;
75649;SDS011;64245;51.282;22.494;2024-03-08T18:00:37;18.55;;;8.93;;
75649;SDS011;64245;51.282;22.494;2024-03-08T18:03:13;29.52;;;9.07;;
75649;SDS011;64245;51.282;22.494;2024-03-08T18:05:47;26.75;;;9.65;;
75649;SDS011;64245;51.282;22.494;2024-03-08T18:08:17;27.90;;;10.00;;
75649;SDS011;64245;51.282;22.494;2024-03-08T18:10:43;15.48;;;5.78;;
75649;SDS011;64245;51.282;22.494;2024-03-08T18:13:13;23.13;;;7.78;;
75649;SDS011;64245;51.282;22.494;2024-03-08T18:15:42;32.60;;;10.10;;
75649;SDS011;64245;51.282;22.494;2024-03-08T18:18:09;13.65;;;7.40;;
75649;SDS011;64245;51.282;22.494;2024-03-08T18:20:36;18.65;;;8.05;;
75649;SDS011;64245;51.282;22.494;2024-03-08T18:23:16;21.20;;;9.48;;
75649;SDS011;64245;51.282;22.494;2024-03-08T18:25:52;13.13;;;8.93;;
75649;SDS011;64245;51.282;22.494;2024-03-08T18:28:20;20.38;;;8.13;;
75649;SDS011;64245;51.282;22.494;2024-03-08T18:30:47;19.83;;;8.40;;
75649;SDS011;64245;51.282;22.494;2024-03-08T18:33:15;23.77;;;6.47;;
75649;SDS011;64245;51.282;22.494;2024-03-08T18:35:49;15.63;;;6.40;;
75649;SDS011;64245;51.282;22.494;2024-03-08T18:38:21;12.48;;;5.15;;
75649;SDS011;64245;51.282;22.494;2024-03-08T18:40:48;11.82;;;7.72;;
75649;SDS011;64245;51.282;22.494;2024-03-08T18:43:17;14.20;;;5.20;;
75649;SDS011;64245;51.282;22.494;2024-03-08T18:45:52;15.07;;;6.15;;
75649;SDS011;64245;51.282;22.494;2024-03-08T18:48:25;20.63;;;7.93;;
75649;SDS011;64245;51.282;22.494;2024-03-08T18:50:52;18.95;;;8.15;;
75649;SDS011;64245;51.282;22.494;2024-03-08T18:53:23;15.68;;;6.20;;
75649;SDS011;64245;51.282;22.494;2024-03-08T18:55:53;16.65;;;8.32;;
75649;SDS011;64245;51.282;22.494;2024-03-08T18:58:22;18.48;;;7.13;;
75649;SDS011;64245;51.282;22.494;2024-03-08T19:00:49;23.40;;;9.07;;
